Time;durP1;ratioP1;P1;durP2;ratioP2;P2;SDS_P1;SDS_P2;PMS_P1;PMS_P2;Temp;Humidity;BMP_temperature;BMP_pressure;BME280_temperature;BME280_humidity;BME280_pressure;Samples;Min_cycle;Max_cycle;Signal;HPM_P1;HPM_P2
2023/11/12 00:00:42;;;;;;;13.70;12.30;;;5.00;99.90;;;;;;4998633;28;20208;-86
2023/11/12 00:03:08;;;;;;;14.17;12.07;;;5.00;99.90;;;;;;4999212;28;20187;-87
2023/11/12 00:05:34;;;;;;;13.20;11.63;;;4.80;99.90;;;;;;5004190;28;20209;-86
2023/11/12 00:08:00;;;;;;;14.03;12.57;;;4.80;99.90;;;;;;4997910;28;20225;-86
2023/11/12 00:10:26;;;;;;;16.47;11.77;;;4.90;99.90;;;;;;4997127;28;20201;-87
2023/11/12 00:12:52;;;;;;;12.83;10.57;;;4.70;99.90;;;;;;4982907;28;20189;-87
2023/11/12 00:15:18;;;;;;;15.80;12.43;;;4.70;99.90;;;;;;4985251;28;20205;-87
2023/11/12 00:17:44;;;;;;;16.27;11.87;;;4.50;99.90;;;;;;4989344;28;20269;-87
2023/11/12 00:20:13;;;;;;;13.17;11.87;;;4.60;99.90;;;;;;4990084;28;20209;-87
2023/11/12 00:22:43;;;;;;;12.67;11.13;;;4.50;99.90;;;;;;4988969;28;20209;-86
2023/11/12 00:25:13;;;;;;;12.57;11.30;;;4.50;99.90;;;;;;4988312;28;20212;-87
2023/11/12 00:27:39;;;;;;;16.47;11.97;;;4.30;99.90;;;;;;4991884;28;20181;-87
2023/11/12 00:30:07;;;;;;;13.23;11.70;;;4.20;99.90;;;;;;4988572;28;20231;-87
2023/11/12 00:32:33;;;;;;;17.57;11.87;;;4.10;99.90;;;;;;4987185;28;20196;-87
2023/11/12 00:34:58;;;;;;;15.27;12.83;;;4.00;99.90;;;;;;4987269;28;20193;-87
2023/11/12 00:37:24;;;;;;;15.50;12.30;;;3.90;99.90;;;;;;4982262;28;20215;-87
2023/11/12 00:39:50;;;;;;;19.17;13.33;;;3.80;99.90;;;;;;4993459;28;20236;-87
2023/11/12 00:42:15;;;;;;;14.13;12.20;;;3.70;99.90;;;;;;4988134;28;20718;-86
2023/11/12 00:44:41;;;;;;;16.87;11.53;;;3.60;99.90;;;;;;4987928;28;20285;-87
2023/11/12 00:47:07;;;;;;;13.70;11.60;;;3.60;99.90;;;;;;4990443;28;20172;-87
2023/11/12 00:49:33;;;;;;;17.40;11.47;;;3.50;99.90;;;;;;4989794;28;20695;-86
2023/11/12 00:51:58;;;;;;;12.17;10.97;;;3.40;99.90;;;;;;4990440;28;20185;-87
2023/11/12 00:54:24;;;;;;;15.33;12.00;;;3.40;99.90;;;;;;4988321;28;20256;-87
2023/11/12 00:56:50;;;;;;;14.30;11.37;;;3.40;99.90;;;;;;4990249;28;20208;-87
2023/11/12 00:59:16;;;;;;;17.07;12.17;;;3.30;99.90;;;;;;4989098;28;20196;-87
2023/11/12 01:01:43;;;;;;;14.03;12.53;;;3.20;99.90;;;;;;4990657;28;20205;-87
2023/11/12 01:04:11;;;;;;;14.67;12.77;;;3.20;99.90;;;;;;4987800;28;20275;-87
2023/11/12 01:06:37;;;;;;;13.57;12.07;;;3.10;99.90;;;;;;4987595;28;20703;-87
2023/11/12 01:09:03;;;;;;;22.33;12.83;;;3.20;99.90;;;;;;4994269;28;20180;-88
2023/11/12 01:11:29;;;;;;;17.00;12.63;;;3.10;99.90;;;;;;4989940;28;20195;-87
2023/11/12 01:13:54;;;;;;;17.27;12.33;;;3.00;99.90;;;;;;4988760;28;20223;-87
2023/11/12 01:16:20;;;;;;;15.67;12.63;;;3.00;99.90;;;;;;4983043;28;20717;-87
2023/11/12 01:18:49;;;;;;;17.93;12.23;;;3.00;99.90;;;;;;4983502;28;20280;-87
2023/11/12 01:21:14;;;;;;;14.77;12.37;;;3.00;99.90;;;;;;4985176;28;20215;-87
2023/11/12 01:23:40;;;;;;;14.80;12.10;;;3.00;99.90;;;;;;4984919;28;20176;-87
2023/11/12 01:26:06;;;;;;;12.60;11.30;;;3.00;99.90;;;;;;4992371;28;20236;-87
2023/11/12 01:28:34;;;;;;;14.20;11.20;;;3.00;99.90;;;;;;4980569;28;20234;-87
2023/11/12 01:31:00;;;;;;;13.27;11.80;;;3.00;99.90;;;;;;4983844;28;20255;-87
2023/11/12 01:33:27;;;;;;;15.47;12.27;;;3.00;99.90;;;;;;4983650;28;20208;-86
2023/11/12 01:35:57;;;;;;;13.27;11.87;;;2.90;99.90;;;;;;4983411;28;20233;-87
2023/11/12 01:38:22;;;;;;;12.13;10.63;;;2.90;99.90;;;;;;4984057;28;20188;-86
2023/11/12 01:40:48;;;;;;;18.53;11.20;;;2.90;99.90;;;;;;4981825;28;20212;-87
2023/11/12 01:43:18;;;;;;;16.43;11.73;;;2.80;99.90;;;;;;4982161;28;20228;-87
2023/11/12 01:45:44;;;;;;;13.00;11.17;;;2.80;99.90;;;;;;4989962;28;20568;-87
2023/11/12 01:48:15;;;;;;;13.70;11.50;;;2.70;99.90;;;;;;4982544;28;20169;-87
2023/11/12 01:50:42;;;;;;;14.77;12.33;;;2.70;99.90;;;;;;4986462;28;20288;-86
2023/11/12 01:53:13;;;;;;;12.57;11.23;;;2.70;99.90;;;;;;4981956;28;20180;-87
2023/11/12 01:55:39;;;;;;;17.20;12.70;;;2.70;99.90;;;;;;4982812;28;20620;-86
2023/11/12 01:58:05;;;;;;;13.17;10.93;;;2.60;99.90;;;;;;4999107;28;20198;-86
2023/11/12 02:00:32;;;;;;;13.90;12.13;;;2.60;99.90;;;;;;4984713;28;20196;-86
2023/11/12 02:02:58;;;;;;;13.43;12.03;;;2.50;99.90;;;;;;4993631;28;20185;-85
2023/11/12 02:05:24;;;;;;;14.73;11.80;;;2.50;99.90;;;;;;4992173;28;20794;-87
2023/11/12 02:07:49;;;;;;;13.37;11.73;;;2.40;99.90;;;;;;4981596;28;20674;-86
2023/11/12 02:10:16;;;;;;;19.93;13.07;;;2.40;99.90;;;;;;4998144;28;20220;-86
2023/11/12 02:12:46;;;;;;;16.93;12.93;;;2.30;99.90;;;;;;4980951;28;20566;-87
2023/11/12 02:15:17;;;;;;;17.53;12.73;;;2.30;99.90;;;;;;4983222;28;20185;-87
2023/11/12 02:17:44;;;;;;;19.93;13.70;;;2.30;99.90;;;;;;4965461;28;20200;-87
2023/11/12 02:20:11;;;;;;;21.53;13.60;;;2.20;99.90;;;;;;4977666;28;20201;-86
2023/11/12 02:22:38;;;;;;;17.80;12.83;;;2.20;99.90;;;;;;4980206;28;20276;-86
2023/11/12 02:25:04;;;;;;;21.17;13.10;;;2.20;99.90;;;;;;4979331;28;20209;-87
2023/11/12 02:27:31;;;;;;;15.63;13.40;;;2.20;99.90;;;;;;4983153;28;20350;-86
2023/11/12 02:29:56;;;;;;;15.80;13.47;;;2.30;99.90;;;;;;4978889;28;20204;-87
2023/11/12 02:32:29;;;;;;;14.47;12.90;;;2.30;99.90;;;;;;4971750;28;20241;-87
2023/11/12 02:34:56;;;;;;;15.33;13.17;;;2.40;99.90;;;;;;4977872;28;20446;-87
2023/11/12 02:37:23;;;;;;;15.97;13.53;;;2.40;99.90;;;;;;4978468;28;20188;-87
2023/11/12 02:39:49;;;;;;;19.17;13.30;;;2.40;99.90;;;;;;4993942;28;20211;-86
2023/11/12 02:42:16;;;;;;;17.23;13.87;;;2.50;99.90;;;;;;4996436;28;20188;-86
2023/11/12 02:44:43;;;;;;;20.13;14.10;;;2.60;99.90;;;;;;4978100;28;20299;-86
2023/11/12 02:47:08;;;;;;;17.07;14.73;;;2.60;99.90;;;;;;4981356;28;20177;-86
2023/11/12 02:50:04;;;;;;;23.23;13.57;;;2.70;99.90;;;;;;4983840;28;20537;-86
2023/11/12 02:52:29;;;;;;;17.87;14.43;;;2.80;99.90;;;;;;4980117;28;20302;-87
2023/11/12 02:54:57;;;;;;;15.87;13.73;;;2.80;99.90;;;;;;4979886;28;20663;-86
2023/11/12 02:57:23;;;;;;;22.70;14.50;;;2.90;99.90;;;;;;4997060;28;20216;-86
2023/11/12 02:59:50;;;;;;;18.70;14.10;;;2.90;99.90;;;;;;4962253;28;20209;-86
2023/11/12 03:02:16;;;;;;;17.67;13.00;;;2.90;99.90;;;;;;4980675;28;20180;-86
2023/11/12 03:04:42;;;;;;;18.90;15.03;;;3.00;99.90;;;;;;4993119;28;20227;-86
2023/11/12 03:07:08;;;;;;;17.67;13.60;;;3.10;99.90;;;;;;4970360;28;20189;-87
2023/11/12 03:09:34;;;;;;;18.57;13.43;;;3.20;99.90;;;;;;4981472;28;20181;-85
2023/11/12 03:12:02;;;;;;;18.97;14.43;;;3.20;99.90;;;;;;4962744;28;20184;-86
2023/11/12 03:14:28;;;;;;;18.63;13.97;;;3.30;99.90;;;;;;4977550;28;20251;-86
2023/11/12 03:16:54;;;;;;;18.43;13.97;;;3.40;99.90;;;;;;4995867;28;20247;-87
2023/11/12 03:19:21;;;;;;;22.63;14.70;;;3.40;99.90;;;;;;4962059;28;20188;-86
2023/11/12 03:21:50;;;;;;;17.87;14.00;;;3.50;99.90;;;;;;4995483;28;20694;-86
2023/11/12 03:24:15;;;;;;;15.87;13.60;;;3.50;99.90;;;;;;4976684;28;20204;-87
2023/11/12 03:26:41;;;;;;;20.53;14.13;;;3.60;99.90;;;;;;4969871;28;20188;-87
2023/11/12 03:29:07;;;;;;;16.70;13.50;;;3.50;99.90;;;;;;4976754;28;20189;-87
2023/11/12 03:31:33;;;;;;;22.33;14.37;;;3.50;99.90;;;;;;4978092;28;20213;-87
2023/11/12 03:34:02;;;;;;;16.67;14.50;;;3.50;99.90;;;;;;4973270;28;20186;-87
2023/11/12 03:36:30;;;;;;;19.83;13.93;;;3.50;99.90;;;;;;4991300;28;20460;-87
2023/11/12 03:38:56;;;;;;;18.13;13.37;;;3.40;99.90;;;;;;4975423;28;20181;-87
2023/11/12 03:41:21;;;;;;;21.47;13.63;;;3.40;99.90;;;;;;4976619;28;20227;-87
2023/11/12 03:43:47;;;;;;;17.03;13.77;;;3.30;99.90;;;;;;4976253;28;20185;-87
2023/11/12 03:46:13;;;;;;;17.00;12.30;;;3.20;99.90;;;;;;4976440;28;20213;-86
2023/11/12 03:48:39;;;;;;;17.87;13.23;;;3.20;99.90;;;;;;4993132;28;20228;-87
2023/11/12 03:51:06;;;;;;;16.70;12.00;;;3.10;99.90;;;;;;4991550;28;20239;-87
2023/11/12 03:53:31;;;;;;;17.97;13.47;;;3.00;99.90;;;;;;4975982;28;20200;-87
2023/11/12 03:55:57;;;;;;;16.97;12.77;;;3.00;99.90;;;;;;4993998;28;20716;-87
2023/11/12 03:58:24;;;;;;;16.57;12.90;;;2.90;99.90;;;;;;4975505;28;20212;-87
2023/11/12 04:00:50;;;;;;;19.60;12.67;;;2.80;99.90;;;;;;4968721;28;20679;-87
2023/11/12 04:03:17;;;;;;;17.13;13.77;;;2.80;99.90;;;;;;4968440;28;20239;-87
2023/11/12 04:05:42;;;;;;;25.13;14.13;;;2.80;99.90;;;;;;4977154;28;20373;-87
2023/11/12 04:08:08;;;;;;;20.37;14.50;;;2.80;99.90;;;;;;4979032;28;20181;-87
2023/11/12 04:10:35;;;;;;;18.73;12.93;;;2.80;99.90;;;;;;4996867;28;20204;-87
2023/11/12 04:13:02;;;;;;;19.20;14.23;;;2.70;99.90;;;;;;4982683;28;20181;-87
2023/11/12 04:15:28;;;;;;;22.33;14.47;;;2.80;99.90;;;;;;4983348;28;20190;-87
2023/11/12 04:17:55;;;;;;;18.43;13.90;;;2.70;99.90;;;;;;4981405;28;20251;-87
2023/11/12 04:20:22;;;;;;;18.80;13.93;;;2.80;99.90;;;;;;4979329;28;20204;-87
2023/11/12 04:22:47;;;;;;;21.10;15.17;;;2.80;99.90;;;;;;4980051;28;20291;-87
2023/11/12 04:25:13;;;;;;;17.90;14.33;;;2.80;99.90;;;;;;4979265;28;20213;-87
2023/11/12 04:27:39;;;;;;;21.03;14.70;;;2.80;99.90;;;;;;4983554;28;20177;-87
2023/11/12 04:30:06;;;;;;;21.63;13.80;;;2.80;99.90;;;;;;4963637;28;20232;-87
2023/11/12 04:32:35;;;;;;;19.03;14.03;;;2.80;99.90;;;;;;4976777;28;20177;-86
2023/11/12 04:35:01;;;;;;;17.87;12.97;;;2.70;99.90;;;;;;4994778;28;20275;-87
2023/11/12 04:37:26;;;;;;;17.03;13.17;;;2.70;99.90;;;;;;4979535;28;20255;-87
2023/11/12 04:39:54;;;;;;;19.87;13.53;;;2.70;99.90;;;;;;4978840;28;20555;-87
2023/11/12 04:42:19;;;;;;;19.20;13.83;;;2.70;99.90;;;;;;4995844;28;20173;-87
2023/11/12 04:44:45;;;;;;;18.00;14.00;;;2.60;99.90;;;;;;4982371;28;20224;-87
2023/11/12 04:47:10;;;;;;;20.13;14.00;;;2.50;99.90;;;;;;4972675;28;20172;-87
2023/11/12 04:49:38;;;;;;;19.43;14.07;;;2.50;99.90;;;;;;4979600;28;20667;-87
2023/11/12 04:52:04;;;;;;;15.27;13.47;;;2.50;99.90;;;;;;4979602;28;20219;-87
2023/11/12 04:54:30;;;;;;;18.33;14.30;;;2.50;99.90;;;;;;4999305;28;20184;-86
2023/11/12 04:56:56;;;;;;;19.07;14.13;;;2.50;99.90;;;;;;4955649;28;20221;-86
2023/11/12 04:59:22;;;;;;;18.70;14.93;;;2.50;99.90;;;;;;4977009;28;20682;-87
2023/11/12 05:01:47;;;;;;;19.70;14.20;;;2.50;99.90;;;;;;4978815;28;20200;-87
2023/11/12 05:04:13;;;;;;;17.33;13.47;;;2.40;99.90;;;;;;4978602;28;20299;-87
2023/11/12 05:06:39;;;;;;;18.00;13.00;;;2.40;99.90;;;;;;4977812;28;20585;-86
2023/11/12 05:09:05;;;;;;;23.03;13.57;;;2.30;99.90;;;;;;4975720;28;20200;-87
2023/11/12 05:11:32;;;;;;;21.87;14.20;;;2.30;99.90;;;;;;4978561;28;20235;-87
2023/11/12 05:13:58;;;;;;;21.70;14.20;;;2.30;99.90;;;;;;4996509;28;20546;-87
2023/11/12 05:16:23;;;;;;;19.23;13.53;;;2.30;99.90;;;;;;4995476;28;20181;-87
2023/11/12 05:18:50;;;;;;;19.37;14.73;;;2.20;99.90;;;;;;4978675;28;20179;-86
2023/11/12 05:21:17;;;;;;;22.00;15.17;;;2.20;99.90;;;;;;4976084;28;20287;-85
2023/11/12 05:23:44;;;;;;;23.00;14.47;;;2.10;99.90;;;;;;4995926;28;20183;-87
2023/11/12 05:26:16;;;;;;;19.93;15.17;;;2.00;99.90;;;;;;4994433;28;20323;-87
2023/11/12 05:28:42;;;;;;;21.43;14.63;;;2.00;99.90;;;;;;4978746;28;20226;-87
2023/11/12 05:31:07;;;;;;;18.47;14.10;;;2.00;99.90;;;;;;4976952;28;20287;-87
2023/11/12 05:33:33;;;;;;;19.47;15.17;;;2.10;99.90;;;;;;4979334;28;20177;-89
2023/11/12 05:36:02;;;;;;;21.10;15.00;;;2.00;99.90;;;;;;4993525;28;20173;-88
2023/11/12 05:38:28;;;;;;;21.40;14.70;;;2.00;99.90;;;;;;4950213;28;20185;-88
2023/11/12 05:40:53;;;;;;;18.40;14.97;;;2.10;99.90;;;;;;4983518;28;20203;-88
2023/11/12 05:43:21;;;;;;;21.10;14.93;;;2.10;99.90;;;;;;4978235;28;20184;-87
2023/11/12 05:45:47;;;;;;;24.00;15.53;;;2.10;99.90;;;;;;4977961;28;20209;-87
2023/11/12 05:48:13;;;;;;;17.50;15.50;;;2.10;99.90;;;;;;4978518;28;20184;-86
2023/11/12 05:50:39;;;;;;;20.63;15.37;;;2.20;99.90;;;;;;4986004;28;20201;-87
2023/11/12 05:53:04;;;;;;;20.50;15.60;;;2.30;99.90;;;;;;5008624;28;20223;-87
2023/11/12 05:55:30;;;;;;;18.20;15.13;;;2.30;99.90;;;;;;4992074;28;20605;-87
2023/11/12 05:57:55;;;;;;;21.67;16.30;;;2.30;99.90;;;;;;4990301;28;20195;-87
2023/11/12 06:00:21;;;;;;;24.87;16.20;;;2.30;99.90;;;;;;4979451;28;20208;-86
2023/11/12 06:02:47;;;;;;;20.33;15.97;;;2.30;99.90;;;;;;4978583;28;20189;-86
2023/11/12 06:05:13;;;;;;;24.60;17.17;;;2.30;99.90;;;;;;4976585;28;20299;-87
2023/11/12 06:07:39;;;;;;;23.77;16.63;;;2.20;99.90;;;;;;4975790;28;20292;-86
2023/11/12 06:10:06;;;;;;;21.17;15.67;;;2.30;99.90;;;;;;4978371;28;20228;-86
2023/11/12 06:12:31;;;;;;;23.73;15.87;;;2.30;99.90;;;;;;4961578;28;20663;-87
2023/11/12 06:14:57;;;;;;;29.43;16.80;;;2.30;99.90;;;;;;4979477;28;20223;-86
2023/11/12 06:17:24;;;;;;;23.40;15.97;;;2.40;99.90;;;;;;4978002;28;20189;-86
2023/11/12 06:19:51;;;;;;;27.57;16.87;;;2.40;99.90;;;;;;4964777;28;20228;-88
2023/11/12 06:22:17;;;;;;;22.50;15.53;;;2.50;99.90;;;;;;4978045;28;20270;-87
2023/11/12 06:24:43;;;;;;;21.77;16.67;;;2.50;99.90;;;;;;4995117;28;20227;-86
2023/11/12 06:27:09;;;;;;;21.17;15.97;;;2.50;99.90;;;;;;4979540;28;20551;-86
2023/11/12 06:29:35;;;;;;;20.67;16.77;;;2.60;99.90;;;;;;4996046;28;20259;-86
2023/11/12 06:32:02;;;;;;;25.77;17.03;;;2.60;99.90;;;;;;4962311;28;20189;-86
2023/11/12 06:34:27;;;;;;;24.17;16.37;;;2.60;99.90;;;;;;4978187;28;20251;-86
2023/11/12 06:36:53;;;;;;;31.90;19.03;;;2.60;99.90;;;;;;4974489;28;20181;-87
2023/11/12 06:39:20;;;;;;;39.47;20.70;;;2.60;99.90;;;;;;4975695;28;20625;-86
2023/11/12 06:41:45;;;;;;;28.80;19.33;;;2.60;99.90;;;;;;4976877;28;20617;-86
2023/11/12 06:44:11;;;;;;;25.87;18.93;;;2.60;99.90;;;;;;4977086;28;20235;-86
2023/11/12 06:46:43;;;;;;;26.37;18.27;;;2.60;99.90;;;;;;4975818;28;20268;-85
2023/11/12 06:49:11;;;;;;;25.73;18.07;;;2.50;99.90;;;;;;4973376;28;20180;-86
2023/11/12 06:51:36;;;;;;;30.87;17.30;;;2.50;99.90;;;;;;4974932;28;20236;-86
2023/11/12 06:54:03;;;;;;;23.13;16.10;;;2.50;99.90;;;;;;4976917;28;20193;-86
2023/11/12 06:56:35;;;;;;;23.73;17.77;;;2.40;99.90;;;;;;5000517;23;20236;-69
2023/11/12 06:59:02;;;;;;;29.90;16.53;;;2.40;99.90;;;;;;5010218;28;20283;-70
2023/11/12 07:01:28;;;;;;;24.57;17.23;;;2.50;99.90;;;;;;5011989;28;20172;-69
2023/11/12 07:03:53;;;;;;;24.77;21.00;;;2.50;99.90;;;;;;5009541;28;20732;-69
2023/11/12 07:06:19;;;;;;;23.40;18.83;;;2.50;99.90;;;;;;5011677;28;20683;-69
2023/11/12 07:08:44;;;;;;;25.87;17.90;;;2.60;99.90;;;;;;5018764;28;20187;-69
2023/11/12 07:11:10;;;;;;;24.77;17.13;;;2.60;99.90;;;;;;5022035;28;20172;-69
2023/11/12 07:13:36;;;;;;;20.73;16.60;;;2.60;99.90;;;;;;5013662;28;20179;-70
2023/11/12 07:16:02;;;;;;;24.17;17.00;;;2.60;99.90;;;;;;5007508;28;20734;-69
2023/11/12 07:18:28;;;;;;;22.70;17.27;;;2.60;99.90;;;;;;5008047;28;20286;-69
2023/11/12 07:20:54;;;;;;;24.03;16.20;;;2.60;99.90;;;;;;5008924;28;20319;-70
2023/11/12 07:23:19;;;;;;;23.63;16.27;;;2.70;99.90;;;;;;5010961;28;20184;-69
2023/11/12 07:25:45;;;;;;;28.27;16.13;;;2.80;99.90;;;;;;5010622;28;20215;-69
2023/11/12 07:28:11;;;;;;;21.80;16.33;;;2.80;99.90;;;;;;5007434;28;20262;-69
2023/11/12 07:30:38;;;;;;;24.43;17.33;;;2.80;99.90;;;;;;5010668;28;20248;-70
2023/11/12 07:33:05;;;;;;;22.23;16.03;;;2.80;99.90;;;;;;5002789;28;20185;-69
2023/11/12 07:35:32;;;;;;;28.27;18.77;;;2.90;99.90;;;;;;5003504;28;20707;-70
2023/11/12 07:37:58;;;;;;;27.47;20.63;;;2.90;99.90;;;;;;5010238;28;20172;-69
2023/11/12 07:40:26;;;;;;;26.13;20.03;;;3.00;99.90;;;;;;5005976;28;20215;-69
2023/11/12 07:42:52;;;;;;;30.00;19.60;;;3.00;99.90;;;;;;5008067;28;20532;-69
2023/11/12 07:45:19;;;;;;;22.93;17.90;;;3.00;99.90;;;;;;5005417;28;20203;-69
2023/11/12 07:47:45;;;;;;;28.57;19.43;;;3.10;99.90;;;;;;5004283;28;20183;-69
2023/11/12 07:50:11;;;;;;;25.07;19.23;;;3.10;99.90;;;;;;5007934;28;20263;-69
2023/11/12 07:52:37;;;;;;;112.03;29.07;;;3.30;99.90;;;;;;5008399;28;20180;-69
2023/11/12 07:55:05;;;;;;;36.63;23.63;;;3.70;99.90;;;;;;4993364;28;20747;-70
2023/11/12 07:57:32;;;;;;;138.00;30.60;;;4.30;99.90;;;;;;5008166;28;20210;-71
2023/11/12 07:59:58;;;;;;;39.30;21.00;;;5.00;99.90;;;;;;5010890;28;20234;-68
2023/11/12 08:02:24;;;;;;;154.10;28.60;;;5.70;99.90;;;;;;5009613;28;20208;-70
2023/11/12 08:04:50;;;;;;;19.13;15.70;;;6.30;99.90;;;;;;5008220;28;20270;-70
2023/11/12 08:07:15;;;;;;;17.17;12.67;;;6.70;99.90;;;;;;5009415;28;20200;-70
2023/11/12 08:09:46;;;;;;;14.27;12.77;;;6.90;99.90;;;;;;5009973;28;20255;-70
2023/11/12 08:12:13;;;;;;;14.60;12.57;;;7.10;99.90;;;;;;5009158;28;20167;-70
2023/11/12 08:14:40;;;;;;;14.43;12.93;;;7.20;99.90;;;;;;5008879;28;20584;-70
2023/11/12 08:17:05;;;;;;;13.00;11.17;;;7.40;99.90;;;;;;5009518;28;20661;-70
2023/11/12 08:19:31;;;;;;;11.57;10.30;;;7.60;99.90;;;;;;5006046;28;20195;-70
2023/11/12 08:21:56;;;;;;;11.27;10.07;;;7.70;99.90;;;;;;5005462;28;20184;-70
2023/11/12 08:24:22;;;;;;;10.70;9.43;;;8.00;99.90;;;;;;5000497;28;20923;-70
2023/11/12 08:26:48;;;;;;;10.27;9.33;;;8.20;99.90;;;;;;5001094;28;20239;-70
2023/11/12 08:29:14;;;;;;;10.67;8.40;;;8.40;99.90;;;;;;5009356;28;20181;-70
2023/11/12 08:31:39;;;;;;;8.10;7.40;;;8.40;99.90;;;;;;5010306;28;20188;-70
2023/11/12 08:34:05;;;;;;;8.87;8.07;;;8.60;99.90;;;;;;5006063;28;20314;-70
2023/11/12 08:36:31;;;;;;;8.60;7.77;;;8.90;99.90;;;;;;4984681;28;20195;-70
2023/11/12 08:38:57;;;;;;;7.67;6.97;;;9.20;99.90;;;;;;5002279;28;20188;-70
2023/11/12 08:41:22;;;;;;;7.57;6.80;;;9.60;99.90;;;;;;5001972;28;20183;-70
2023/11/12 08:43:49;;;;;;;10.67;6.90;;;10.10;99.90;;;;;;5017127;28;20172;-70
2023/11/12 08:46:15;;;;;;;8.10;6.57;;;10.50;99.90;;;;;;5027114;28;20234;-70
2023/11/12 08:48:44;;;;;;;7.70;6.17;;;10.80;99.90;;;;;;5009835;28;20204;-70
2023/11/12 08:51:11;;;;;;;6.50;5.90;;;11.00;99.90;;;;;;5010611;28;20181;-70
2023/11/12 08:53:37;;;;;;;6.70;5.87;;;11.20;99.90;;;;;;5009710;28;20184;-70
2023/11/12 08:56:03;;;;;;;6.20;5.70;;;11.30;99.90;;;;;;5010691;28;20192;-70
2023/11/12 08:58:28;;;;;;;6.93;5.67;;;11.50;99.90;;;;;;5013768;28;21019;-71
2023/11/12 09:00:55;;;;;;;5.77;5.27;;;11.70;99.90;;;;;;5014116;28;20180;-70
2023/11/12 09:03:21;;;;;;;9.63;5.27;;;11.90;99.90;;;;;;5014192;28;20191;-70
2023/11/12 09:05:46;;;;;;;7.20;5.57;;;11.80;99.90;;;;;;5013822;28;20288;-70
2023/11/12 09:08:12;;;;;;;5.80;5.17;;;11.80;99.90;;;;;;5013954;28;20173;-70
2023/11/12 09:10:38;;;;;;;6.20;5.53;;;11.80;99.90;;;;;;5013947;28;20579;-71
2023/11/12 09:13:03;;;;;;;6.73;5.93;;;11.90;99.90;;;;;;5014207;28;20203;-71
2023/11/12 09:15:29;;;;;;;6.13;5.53;;;11.80;99.90;;;;;;5013888;28;20207;-70
2023/11/12 09:17:55;;;;;;;6.63;6.03;;;11.70;99.90;;;;;;5014044;28;20249;-70
2023/11/12 09:20:22;;;;;;;6.37;5.77;;;11.50;99.90;;;;;;5013849;28;20172;-70
2023/11/12 09:22:48;;;;;;;6.23;5.60;;;11.40;99.90;;;;;;5013983;28;20184;-70
2023/11/12 09:25:14;;;;;;;7.37;5.80;;;11.20;99.90;;;;;;5013774;28;20555;-70
2023/11/12 09:27:40;;;;;;;7.13;5.90;;;11.20;99.90;;;;;;5013581;28;20180;-70
2023/11/12 09:30:08;;;;;;;6.20;5.57;;;11.10;99.90;;;;;;5013932;28;20172;-70
2023/11/12 09:32:35;;;;;;;5.90;5.40;;;10.90;99.90;;;;;;5013400;28;20699;-70
2023/11/12 09:35:10;;;;;;;5.73;5.30;;;10.70;99.90;;;;;;5008237;28;20283;-69
2023/11/12 09:37:36;;;;;;;6.27;5.67;;;10.40;99.90;;;;;;5012886;28;20218;-70
2023/11/12 09:40:02;;;;;;;13.60;5.93;;;10.10;99.90;;;;;;5012932;28;20208;-70
2023/11/12 09:42:28;;;;;;;8.00;5.30;;;10.00;99.90;;;;;;5012898;28;20661;-70
2023/11/12 09:44:55;;;;;;;8.70;6.00;;;10.00;99.90;;;;;;5013261;28;20705;-70
2023/11/12 09:47:37;;;;;;;6.47;5.90;;;10.10;99.90;;;;;;5013043;28;20168;-70
2023/11/12 09:50:04;;;;;;;6.20;5.60;;;10.50;99.90;;;;;;5014072;28;20204;-70
2023/11/12 09:52:30;;;;;;;5.93;5.33;;;11.10;99.90;;;;;;5013407;28;20740;-70
2023/11/12 09:54:57;;;;;;;8.00;5.77;;;11.60;99.90;;;;;;5013423;28;20282;-70
2023/11/12 09:57:23;;;;;;;6.57;5.40;;;11.90;99.90;;;;;;5013132;28;20195;-70
2023/11/12 09:59:51;;;;;;;5.93;4.90;;;12.20;99.90;;;;;;5008999;28;20177;-70
2023/11/12 10:02:18;;;;;;;5.83;5.30;;;12.40;99.90;;;;;;4999459;28;20184;-70
2023/11/12 10:04:55;;;;;;;7.23;5.30;;;12.60;99.90;;;;;;5012784;28;20565;-70
2023/11/12 10:07:20;;;;;;;5.57;5.00;;;12.40;99.90;;;;;;5012361;28;20180;-70
2023/11/12 10:09:46;;;;;;;6.53;5.77;;;12.30;99.90;;;;;;5012867;28;20180;-70
2023/11/12 10:12:12;;;;;;;6.10;5.60;;;12.10;99.90;;;;;;5012781;28;20168;-70
2023/11/12 10:14:37;;;;;;;7.47;5.50;;;12.20;99.90;;;;;;5012707;28;20717;-70
2023/11/12 10:17:07;;;;;;;6.80;5.40;;;12.10;99.90;;;;;;5012719;28;20307;-70
2023/11/12 10:19:40;;;;;;;6.37;5.30;;;12.10;99.90;;;;;;5012566;28;20656;-70
2023/11/12 10:22:09;;;;;;;9.17;7.47;;;12.00;99.90;;;;;;5012788;28;20669;-70
2023/11/12 10:24:45;;;;;;;8.50;6.20;;;11.90;99.90;;;;;;5011815;28;20751;-70
2023/11/12 10:27:12;;;;;;;6.70;6.10;;;11.80;99.90;;;;;;5012338;28;20180;-70
2023/11/12 10:29:39;;;;;;;8.43;5.97;;;11.80;99.90;;;;;;5012129;28;20265;-70
2023/11/12 10:32:05;;;;;;;7.07;6.00;;;12.00;99.90;;;;;;5012296;28;20168;-70
2023/11/12 10:34:32;;;;;;;7.07;5.73;;;12.30;99.90;;;;;;5011403;28;20288;-70
2023/11/12 10:37:08;;;;;;;6.10;5.50;;;12.60;99.90;;;;;;5011827;28;20180;-70
2023/11/12 10:39:40;;;;;;;6.43;4.90;;;12.90;99.90;;;;;;5011863;28;20196;-70
2023/11/12 10:42:20;;;;;;;6.57;5.50;;;13.40;99.90;;;;;;5012197;28;20820;-70
2023/11/12 10:44:51;;;;;;;6.13;4.90;;;13.70;99.90;;;;;;5009780;28;20218;-70
2023/11/12 10:47:20;;;;;;;5.87;4.67;;;13.70;99.90;;;;;;4997690;28;20172;-71
2023/11/12 10:49:47;;;;;;;5.23;4.67;;;13.60;99.90;;;;;;5011437;28;20176;-70
2023/11/12 10:52:14;;;;;;;6.80;5.07;;;13.30;99.90;;;;;;5011802;28;20176;-70
2023/11/12 10:54:41;;;;;;;5.90;5.23;;;13.20;99.90;;;;;;5011456;28;20664;-71
2023/11/12 10:57:07;;;;;;;7.33;5.37;;;13.10;99.90;;;;;;5011068;28;20219;-70
2023/11/12 10:59:35;;;;;;;5.70;5.03;;;13.10;99.90;;;;;;5011452;28;20199;-71
2023/11/12 11:02:01;;;;;;;7.30;4.80;;;13.30;99.90;;;;;;5011998;28;20253;-71
2023/11/12 11:04:28;;;;;;;4.97;4.47;;;13.60;99.90;;;;;;5011431;28;20215;-70
2023/11/12 11:06:54;;;;;;;7.20;5.23;;;13.80;99.90;;;;;;5011521;28;20553;-70
2023/11/12 11:09:22;;;;;;;5.07;4.57;;;13.80;99.90;;;;;;5011422;28;20174;-70
2023/11/12 11:11:51;;;;;;;5.50;5.00;;;13.70;99.90;;;;;;5011789;28;20204;-71
2023/11/12 11:14:29;;;;;;;6.40;5.70;;;13.50;99.90;;;;;;5011409;28;20199;-71
2023/11/12 11:16:55;;;;;;;6.57;5.40;;;13.40;99.90;;;;;;5011358;28;20180;-70
2023/11/12 11:19:43;;;;;;;6.10;5.50;;;13.20;99.90;;;;;;5010821;28;20176;-70
2023/11/12 11:22:31;;;;;;;6.27;5.37;;;13.00;99.90;;;;;;5011104;28;20436;-70
2023/11/12 11:25:18;;;;;;;5.70;4.97;;;13.00;99.90;;;;;;5004132;28;20212;-70
2023/11/12 11:27:46;;;;;;;5.90;5.37;;;13.30;99.90;;;;;;5000436;28;20196;-70
2023/11/12 11:30:14;;;;;;;5.53;5.03;;;13.60;99.90;;;;;;5011631;28;20255;-70
2023/11/12 11:32:51;;;;;;;5.00;4.50;;;14.30;99.90;;;;;;5011265;28;20176;-68
2023/11/12 11:35:18;;;;;;;5.20;4.67;;;15.00;99.90;;;;;;5010783;28;20267;-68
2023/11/12 11:38:06;;;;;;;9.57;4.70;;;15.30;99.90;;;;;;5011251;28;20195;-68
2023/11/12 11:40:33;;;;;;;5.03;4.57;;;15.50;99.90;;;;;;5011079;28;20315;-68
2023/11/12 11:43:22;;;;;;;6.97;4.83;;;15.60;99.90;;;;;;5010996;28;20278;-68
2023/11/12 11:46:08;;;;;;;4.80;4.30;;;15.60;99.90;;;;;;5011143;28;20258;-68
2023/11/12 11:48:43;;;;;;;6.23;4.73;;;15.60;99.90;;;;;;5010912;28;20176;-68
2023/11/12 11:51:27;;;;;;;6.30;4.87;;;15.50;99.90;;;;;;5011291;28;20255;-68
2023/11/12 11:53:57;;;;;;;8.73;5.23;;;15.30;99.90;;;;;;5011204;28;20196;-68
2023/11/12 11:56:26;;;;;;;9.07;4.83;;;15.00;99.90;;;;;;5010201;28;20276;-67
2023/11/12 11:58:52;;;;;;;8.23;5.00;;;14.70;99.90;;;;;;5010004;28;20622;-68
2023/11/12 12:01:18;;;;;;;6.90;4.80;;;14.60;99.90;;;;;;5010925;28;20634;-67
2023/11/12 12:03:44;;;;;;;8.77;5.33;;;14.30;99.90;;;;;;5011204;28;20242;-68
2023/11/12 12:06:21;;;;;;;5.40;4.90;;;13.90;99.90;;;;;;5011120;28;20685;-67
2023/11/12 12:08:53;;;;;;;7.53;4.77;;;13.50;99.90;;;;;;5010987;28;20186;-68
2023/11/12 12:11:24;;;;;;;12.40;5.63;;;13.30;99.90;;;;;;5010499;28;20200;-68
2023/11/12 12:13:58;;;;;;;6.37;4.90;;;13.20;99.90;;;;;;5010881;28;20227;-68
2023/11/12 12:16:34;;;;;;;5.70;4.47;;;12.90;99.90;;;;;;5010897;28;20253;-70
2023/11/12 12:19:01;;;;;;;5.37;4.63;;;12.70;99.90;;;;;;5010639;28;20204;-68
2023/11/12 12:21:28;;;;;;;5.50;5.00;;;12.50;99.90;;;;;;5010924;28;20182;-68
2023/11/12 12:23:54;;;;;;;5.57;5.10;;;12.20;99.90;;;;;;5010718;28;20275;-67
2023/11/12 12:26:24;;;;;;;7.03;5.90;;;12.10;99.90;;;;;;5011249;28;20208;-68
2023/11/12 12:28:51;;;;;;;6.97;5.50;;;12.00;99.90;;;;;;5010975;28;20196;-70
2023/11/12 12:31:17;;;;;;;7.17;5.80;;;11.90;99.90;;;;;;5012926;28;20177;-67
2023/11/12 12:34:00;;;;;;;8.63;5.80;;;12.00;99.90;;;;;;5014605;28;20243;-67
2023/11/12 12:36:26;;;;;;;6.73;6.00;;;12.20;99.90;;;;;;5014764;28;20176;-68
2023/11/12 12:38:56;;;;;;;7.23;4.80;;;12.40;99.90;;;;;;5014558;28;20176;-68
2023/11/12 12:41:23;;;;;;;5.63;4.83;;;12.50;99.90;;;;;;5014536;28;20545;-68